• Join FlightAware (Why Join?)
  • Login
  • US Flag 
06:06AM EST


 

Airport Tracker/Info


-or-


 

Live Flight TrackerFlight Track Log ✈ N45NS ✈ 12-Mar-2014 ✈ KPWK - KEGE

Flight Track Log - Related Links

Times and Time Zones

All times are in EDT time to prevent confusion due to time zone crossing. See the N45NS flight status page for this flight to view local times or setup timezone preferences in your user account.

Time Position Orientation Groundspeed Altitude Reporting Facility
EDT Latitude Longitude Course Direction KTS MPH feet Rate Location/Type
02:43PM 42.1411 -87.9342 253° West 171 197 2,400  Level Chicago Center
02:44PM 42.1506 -88.0189 279° West 240 276 3,000 1,620 Climbing Chicago Center
02:45PM 42.1414 -88.1192 263° West 253 291 5,800 3,600 Climbing Chicago Center
02:46PM 42.1331 -88.2156 263° West 259 298 10,500 4,500 Climbing Chicago Center
02:47PM 42.1250 -88.3253 264° West 273 314 15,100 3,720 Climbing Chicago Center
02:48PM 41.9678 -88.5396 253° West  Level FlightAware Approximate
02:48PM 42.1142 -88.4175 261° West 289 333 18,300  Level Chicago Center
02:49PM 42.0997 -88.5519 262° West 301 346 22,200 3,360 Climbing Chicago Center
02:50PM 42.0861 -88.6678 261° West 310 357 25,300 3,000 Climbing Chicago Center
02:51PM 42.0914 -88.7797 274° West 302 348 28,400 2,760 Climbing Chicago Center
02:52PM 42.0917 -88.9011 270° West 289 333 31,100 1,740 Climbing Chicago Center
02:53PM 42.0806 -89.0078 262° West 287 330 32,000 420 Climbing Chicago Center
02:54PM 42.0708 -89.1336 264° West 320 368 32,000  Level Chicago Center
02:55PM 42.0569 -89.2872 263° West 380 437 32,000 180 Level Chicago Center
02:56PM 42.0439 -89.4325 263° West 392 451 32,400 1,080 Climbing Chicago Center
02:57PM 42.0344 -89.5661 265° West 371 427 34,300 1,560 Climbing Chicago Center
02:58PM 42.0228 -89.6917 263° West 347 399 35,700 1,140 Climbing Chicago Center
02:59PM 42.0125 -89.8111 263° West 330 380 36,700 960 Climbing Chicago Center
03:00PM 42.0011 -89.9375 263° West 324 373 37,700 780 Climbing Chicago Center
03:01PM 41.9914 -90.0536 264° West 317 365 38,400 720 Climbing Chicago Center
03:02PM 41.9789 -90.1908 263° West 310 357 39,200 720 Climbing Chicago Center
03:03PM 41.9683 -90.3050 263° West 309 356 40,000 360 Climbing Chicago Center
03:04PM 41.9581 -90.4186 263° West 308 354 40,000  Level Chicago Center
03:05PM 41.9464 -90.5381 263° West 321 369 40,000  Level Chicago Center
03:06PM 41.9319 -90.6669 261° West 348 400 40,000  Level Chicago Center
03:07PM 41.9203 -90.7939 263° West 346 398 40,000  Level Chicago Center
03:08PM 41.9050 -90.9497 263° West 351 404 40,000  Level Chicago Center
03:10PM 41.8917 -91.0808 262° West 356 410 40,000  Level Chicago Center
03:11PM 41.8786 -91.2136 263° West 359 413 40,000  Level Chicago Center
03:12PM 41.8642 -91.3467 262° West 361 415 40,000  Level Chicago Center
03:13PM 41.8508 -91.4786 262° West 359 413 40,000  Level Chicago Center
03:14PM 41.8367 -91.6119 262° West 361 415 40,000  Level Chicago Center
03:15PM 41.8222 -91.7453 262° West 363 418 40,000  Level Chicago Center
03:16PM 41.8056 -91.9056 262° West 363 418 40,000  Level Chicago Center
03:17PM 41.7911 -92.0383 262° West 364 419 40,000  Level Chicago Center
03:18PM 41.7764 -92.1708 262° West 361 415 40,000  Level Chicago Center
03:19PM 41.7594 -92.3000 260° West 357 411 40,000  Level Chicago Center
03:20PM 41.7450 -92.4333 262° West 360 414 40,000  Level Chicago Center
03:21PM 41.7308 -92.5675 262° West 363 418 40,000 -60 Level Chicago Center
03:22PM 41.7128 -92.7283 261° West 365 420 39,900  Descending Chicago Center
03:23PM 41.6992 -92.8450 261° West 364 419 40,000  Climbing Chicago Center
03:24PM 41.6806 -93.0050 261° West 363 418 40,000  Level Chicago Center
03:25PM 41.6650 -93.1375 261° West 365 420 40,000  Level Chicago Center
03:26PM 41.6489 -93.2692 261° West 362 417 40,000  Level Chicago Center
03:27PM 41.6322 -93.3992 260° West 359 413 40,000  Level Chicago Center
03:28PM 41.6178 -93.5283 262° West 355 409 40,000  Level Chicago Center
03:29PM 41.6014 -93.6578 260° West 357 411 40,000  Level Chicago Center
03:30PM 41.5822 -93.8125 261° West 356 410 40,000  Level Chicago Center
03:31PM 41.5664 -93.9419 261° West 356 410 40,000  Level Chicago Center
03:32PM 41.5494 -94.0711 260° West 355 409 40,000  Level Chicago Center
03:33PM 41.5319 -94.2011 260° West 357 411 40,000  Level Chicago Center
03:34PM 41.5147 -94.3319 260° West 360 414 40,000  Level Chicago Center
03:35PM 41.4950 -94.4892 261° West 361 415 40,000  Level Chicago Center
03:36PM 41.4739 -94.6408 260° West 359 413 40,000  Level Minneapolis Center
03:37PM 41.4575 -94.7717 261° West 359 413 40,000  Level Minneapolis Center
03:39PM 41.4406 -94.9039 260° West 359 413 40,000  Level Minneapolis Center
03:40PM 41.4214 -95.0358 259° West 362 417 40,000  Level Minneapolis Center
03:41PM 41.4039 -95.1672 260° West 362 417 40,000  Level Minneapolis Center
03:42PM 41.3853 -95.2992 259° West 362 417 40,000  Level Minneapolis Center
03:43PM 41.3625 -95.4575 259° West 362 417 40,000  Level Minneapolis Center
03:44PM 41.3442 -95.5897 260° West 362 417 40,000  Level Minneapolis Center
03:45PM 41.3264 -95.7189 260° West 362 417 40,000  Level Minneapolis Center
03:46PM 41.3083 -95.8506 260° West 361 415 40,000  Level Minneapolis Center
03:47PM 41.2889 -95.9800 259° West 360 414 40,000  Level Minneapolis Center
03:48PM 41.2697 -96.1106 259° West 360 414 40,000  Level Minneapolis Center
03:49PM 41.2500 -96.2419 259° West 360 414 40,000  Level Minneapolis Center
03:50PM 41.2300 -96.3836 259° West 360 414 40,000  Level Minneapolis Center
03:51PM 41.2106 -96.5142 259° West 360 414 40,000  Level Minneapolis Center
03:52PM 41.1897 -96.6442 258° West 360 414 40,000  Level Minneapolis Center
03:53PM 41.1703 -96.7739 259° West 360 414 40,000  Level Minneapolis Center
03:54PM 41.1500 -96.9039 258° West 360 414 40,000  Level Minneapolis Center
03:55PM 41.1261 -97.0603 259° West 360 414 40,000  Level Minneapolis Center
03:56PM 41.1053 -97.1908 258° West 360 414 40,000  Level Minneapolis Center
03:57PM 41.0850 -97.3217 258° West 360 414 40,000  Level Minneapolis Center
03:58PM 41.0667 -97.4417 259° West 360 414 40,000  Level Minneapolis Center
03:59PM 41.0406 -97.6008 258° West 363 418 40,000  Level Minneapolis Center
04:00PM 41.0189 -97.7331 258° West 363 418 40,000  Level Minneapolis Center
04:01PM 40.9975 -97.8675 258° West 366 421 40,000  Level Minneapolis Center
04:02PM 40.9747 -98.0011 257° West 369 425 40,000  Level Minneapolis Center
04:03PM 40.9536 -98.1347 258° West 369 425 40,000  Level Minneapolis Center
04:04PM 40.9308 -98.2697 257° West 370 426 40,000  Level Minneapolis Center
04:05PM 40.9083 -98.4044 258° West 371 427 40,000  Level Minneapolis Center
04:06PM 40.8844 -98.5458 257° West 371 427 40,000  Level Minneapolis Center
04:07PM 40.8614 -98.6800 257° West 371 427 40,000  Level Minneapolis Center
04:08PM 40.8392 -98.8150 258° West 372 428 40,000  Level Minneapolis Center
04:09PM 40.8147 -98.9486 256° West 372 428 40,000  Level Minneapolis Center
04:10PM 40.7911 -99.0822 257° West 372 428 40,000  Level Minneapolis Center
04:11PM 40.7633 -99.2450 257° West 373 429 40,000  Level Minneapolis Center
04:12PM 40.7406 -99.3792 257° West 373 429 40,000  Level Minneapolis Center
04:13PM 40.7167 -99.5119 257° West 373 429 40,000  Level Minneapolis Center
04:14PM 40.6917 -99.6464 256° West 373 429 40,000  Level Minneapolis Center
04:15PM 40.6683 -99.7817 257° West 374 430 40,000  Level Minneapolis Center
04:17PM 40.6439 -99.9153 256° West 375 432 40,000  Level Minneapolis Center
04:18PM 40.6192 -100.0489 256° West 375 432 40,000  Level Minneapolis Center
04:19PM 40.5947 -100.1831 257° West 375 432 40,000  Level Minneapolis Center
04:20PM 40.5656 -100.3428 257° West 375 432 40,000  Level Minneapolis Center
04:21PM 40.5403 -100.4764 256° West 375 432 40,000  Level Minneapolis Center
04:22PM 40.5136 -100.6089 255° West 375 432 40,000  Level Minneapolis Center
04:23PM 40.4794 -100.7903 256° West 376 433 40,000  Level Denver Center
04:24PM 40.4542 -100.9183 255° West 377 434 40,000  Level Denver Center
04:25PM 40.4367 -101.0717 262° West 377 434 40,000  Level Denver Center
04:26PM 40.4197 -101.2019 260° West 377 434 40,000  Level Denver Center
04:27PM 40.4033 -101.3331 261° West 377 434 40,000  Level Denver Center
04:28PM 40.3831 -101.4850 260° West 377 434 40,000  Level Denver Center
04:29PM 40.3672 -101.6156 261° West 378 435 40,000  Level Denver Center
04:30PM 40.3467 -101.7675 260° West 378 435 40,000  Level Denver Center
04:31PM 40.3306 -101.9000 261° West 381 438 40,000  Level Denver Center
04:32PM 40.3100 -102.0517 260° West 381 438 40,000  Level Denver Center
04:33PM 40.2919 -102.1825 260° West 381 438 40,000  Level Denver Center
04:34PM 40.2744 -102.3139 260° West 381 438 40,000  Level Denver Center
04:35PM 40.2542 -102.4650 260° West 381 438 40,000  Level Denver Center
04:36PM 40.2372 -102.5950 260° West 381 438 40,000  Level Denver Center
04:37PM 40.2175 -102.7353 260° West 378 435 40,000  Level Denver Center
04:38PM 40.1981 -102.8700 259° West 378 435 40,000  Level Denver Center
04:40PM 40.1800 -103.0036 260° West 378 435 40,000  Level Denver Center
04:41PM 40.1569 -103.1653 259° West 377 434 40,000  Level Denver Center
04:42PM 40.1467 -103.3011 264° West 377 434 40,000  Level Denver Center
04:43PM 40.1372 -103.4369 265° West 377 434 40,000 -300 Level Denver Center
04:44PM 40.1275 -103.5742 265° West 378 435 39,500 -1,020 Descending Denver Center
04:45PM 40.1175 -103.7094 265° West 378 435 37,900 -1,560 Descending Denver Center
04:46PM 40.1072 -103.8444 264° West 378 435 36,300 -1,560 Descending Denver Center
04:47PM 40.0961 -103.9869 264° West 387 445 34,700 -1,800 Descending Denver Center
04:48PM 40.0825 -104.1661 264° West 411 473 32,700 -1,740 Descending Denver Center
04:49PM 40.0708 -104.3217 264° West 427 491 31,100 -1,620 Descending Denver Center
04:50PM 40.0575 -104.4797 264° West 436 502 29,500 -1,500 Descending Denver Center
04:51PM 40.0458 -104.6350 264° West 436 502 28,100 -780 Descending Denver Center
04:52PM 40.0333 -104.7883 264° West 433 498 28,000 -540 Descending Denver Center
04:53PM 40.0331 -104.9767 270° West 436 502 27,000 -540 Descending Denver Center
04:54PM 40.0300 -105.1333 269° West 436 502 27,000 -600 Level Denver Center
04:55PM 40.0275 -105.2928 269° West 442 509 25,800 -1,320 Descending Denver Center
04:56PM 40.0242 -105.4414 268° West 418 481 24,300 -900 Descending Denver Center
04:57PM 40.0197 -105.5958 268° West 423 487 24,000 -300 Descending Denver Center
04:58PM 39.9669 -105.7656 248° West 421 484 23,700 -1,140 Descending Denver Center
04:59PM 39.9228 -105.9083 248° West 425 489 21,700 -1,980 Descending Denver Center
05:00PM 39.8822 -106.0425 249° West 402 463 19,700 -1,920 Descending Denver Center
05:01PM 39.8436 -106.1694 248° West 385 443 17,800 -1,740 Descending Denver Center
05:02PM 39.8022 -106.3081 249° West 381 438 16,200 -900 Descending Denver Center
05:03PM 39.7639 -106.4319 248° West 377 434 16,000 -960 Descending Denver Center
05:04PM 39.7278 -106.5492 248° West 357 411 14,300 -2,040 Descending Denver Center
05:05PM 39.6969 -106.6475 248° West 322 371 11,900 -2,280 Descending Denver Center
05:06PM 39.6650 -106.7533 249° West 266 306 9,700 -1,800 Descending Denver Center
05:07PM 39.6533 -106.8183 257° West 197 227 8,300 -1,260 Descending Denver Center
05:08PM 39.6472 -106.8739 262° West 173 199 7,100 -1,200 Descending Denver Center